createdAt,value
2022-10-06T00:01:20.579Z,9.30
2022-10-06T00:03:49.325Z,8.20
2022-10-06T00:06:19.607Z,8.40
2022-10-06T00:08:48.885Z,7.20
2022-10-06T00:11:17.839Z,7.20
2022-10-06T00:13:46.833Z,7.30
2022-10-06T00:16:24.883Z,7.80
2022-10-06T00:18:53.327Z,7.80
2022-10-06T00:21:22.225Z,6.90
2022-10-06T00:23:50.863Z,7.80
2022-10-06T00:26:19.646Z,7.20
2022-10-06T00:28:50.089Z,7.40
2022-10-06T00:31:20.080Z,7.60
2022-10-06T00:33:50.640Z,7.90
2022-10-06T00:36:20.053Z,7.40
2022-10-06T00:38:49.060Z,7.90
2022-10-06T00:41:19.357Z,7.20
2022-10-06T00:43:57.795Z,8.30
2022-10-06T00:46:45.574Z,8.00
2022-10-06T00:49:29.308Z,8.10
2022-10-06T00:52:07.857Z,8.10
2022-10-06T00:54:41.042Z,7.90
2022-10-06T00:57:09.959Z,7.30
2022-10-06T00:59:41.070Z,6.80
2022-10-06T01:02:30.100Z,7.70
2022-10-06T01:05:04.210Z,7.80
2022-10-06T01:07:33.632Z,7.10
2022-10-06T01:10:12.388Z,7.10
2022-10-06T01:12:41.592Z,7.20
2022-10-06T01:15:13.514Z,6.90
2022-10-06T01:17:56.227Z,7.00
2022-10-06T01:20:40.192Z,6.70
2022-10-06T01:23:10.904Z,6.60
2022-10-06T01:25:39.628Z,6.20
2022-10-06T01:28:11.719Z,6.40
2022-10-06T01:30:42.879Z,7.00
2022-10-06T01:33:12.775Z,6.60
2022-10-06T01:35:41.004Z,6.80
2022-10-06T01:38:09.226Z,6.60
2022-10-06T01:40:37.810Z,6.50
2022-10-06T01:43:06.730Z,6.30
2022-10-06T01:45:38.325Z,6.10
2022-10-06T01:48:08.101Z,6.30
2022-10-06T01:50:36.455Z,7.20
2022-10-06T01:53:05.130Z,6.10
2022-10-06T01:55:33.590Z,6.20
2022-10-06T01:58:02.079Z,5.90
2022-10-06T02:00:31.357Z,6.60
2022-10-06T02:02:59.883Z,6.00
2022-10-06T02:05:28.500Z,6.40
2022-10-06T02:07:57.271Z,5.80
2022-10-06T02:10:25.830Z,6.00
2022-10-06T02:12:55.080Z,6.00
2022-10-06T02:15:24.302Z,6.70
2022-10-06T02:17:56.050Z,6.40
2022-10-06T02:20:25.001Z,6.00
2022-10-06T02:22:53.467Z,6.90
2022-10-06T02:25:22.019Z,6.30
2022-10-06T02:27:51.134Z,6.50
2022-10-06T02:30:19.558Z,5.60
2022-10-06T02:32:47.968Z,7.60
2022-10-06T02:35:16.757Z,6.00
2022-10-06T02:37:48.084Z,5.90
2022-10-06T02:40:17.357Z,6.10
2022-10-06T02:42:46.442Z,6.60
2022-10-06T02:45:15.412Z,6.70
2022-10-06T02:47:44.125Z,5.80
2022-10-06T02:50:14.098Z,6.50
2022-10-06T02:52:43.225Z,6.40
2022-10-06T02:55:12.288Z,6.00
2022-10-06T02:57:41.274Z,6.30
2022-10-06T03:00:12.054Z,6.10
2022-10-06T03:02:40.576Z,6.10
2022-10-06T03:05:09.761Z,5.60
2022-10-06T03:07:38.368Z,5.70
2022-10-06T03:10:07.523Z,5.80
2022-10-06T03:12:35.988Z,6.40
2022-10-06T03:15:05.622Z,6.20
2022-10-06T03:17:34.274Z,5.00
2022-10-06T03:20:02.995Z,5.70
2022-10-06T03:22:31.685Z,5.50
2022-10-06T03:25:00.194Z,6.70
2022-10-06T03:27:28.742Z,5.70
2022-10-06T03:29:57.509Z,6.40
2022-10-06T03:32:26.169Z,6.30
2022-10-06T03:34:55.244Z,6.50
2022-10-06T03:37:23.995Z,5.90
2022-10-06T03:39:53.167Z,6.00
2022-10-06T03:42:22.157Z,6.70
2022-10-06T03:44:50.497Z,5.70
2022-10-06T03:47:19.614Z,4.90
2022-10-06T03:49:47.844Z,5.70
2022-10-06T03:52:16.338Z,5.20
2022-10-06T03:54:45.948Z,5.60
2022-10-06T03:57:14.411Z,5.00
2022-10-06T03:59:44.457Z,5.70
2022-10-06T04:02:13.013Z,5.80
2022-10-06T04:04:41.660Z,6.00
2022-10-06T04:07:10.584Z,5.00
2022-10-06T04:09:39.222Z,5.00
2022-10-06T04:12:07.880Z,5.00
2022-10-06T04:14:36.842Z,4.70
2022-10-06T04:17:05.270Z,5.20
2022-10-06T04:19:33.638Z,5.10
2022-10-06T04:22:02.324Z,4.80
2022-10-06T04:24:30.966Z,4.70
2022-10-06T04:27:19.548Z,4.70
2022-10-06T04:29:48.044Z,4.80
2022-10-06T04:32:16.678Z,4.30
2022-10-06T04:34:45.232Z,4.40
2022-10-06T04:37:14.429Z,4.50
2022-10-06T04:39:42.712Z,4.70
2022-10-06T04:42:11.323Z,4.40
2022-10-06T04:44:40.803Z,4.40
2022-10-06T04:47:09.433Z,4.20
2022-10-06T04:49:37.962Z,4.90
2022-10-06T04:52:06.638Z,4.40
2022-10-06T04:54:35.163Z,4.00
2022-10-06T04:57:03.896Z,4.40
2022-10-06T04:59:51.336Z,3.80
2022-10-06T05:02:21.110Z,4.40
2022-10-06T05:04:49.587Z,4.20
2022-10-06T05:07:18.283Z,4.10
2022-10-06T05:09:47.134Z,4.70
2022-10-06T05:12:15.459Z,4.40
2022-10-06T05:14:47.387Z,4.00
2022-10-06T05:17:15.921Z,4.00
2022-10-06T05:19:44.340Z,5.40
2022-10-06T05:22:13.222Z,4.00
2022-10-06T05:24:41.861Z,3.70
2022-10-06T05:27:10.805Z,4.30
2022-10-06T05:29:39.697Z,4.00
2022-10-06T05:32:08.352Z,4.00
2022-10-06T05:34:36.869Z,3.70
2022-10-06T05:37:05.679Z,3.80
2022-10-06T05:39:34.405Z,4.30
2022-10-06T05:42:05.512Z,4.20
2022-10-06T05:44:43.153Z,3.90
2022-10-06T05:47:11.866Z,4.10
2022-10-06T05:49:40.428Z,4.10
2022-10-06T05:52:09.308Z,4.30
2022-10-06T05:54:37.752Z,3.50
2022-10-06T05:57:06.204Z,3.90
2022-10-06T05:59:35.019Z,4.10
2022-10-06T06:02:03.670Z,3.60
2022-10-06T06:04:32.657Z,4.20
2022-10-06T06:07:01.322Z,3.70
2022-10-06T06:09:29.857Z,3.80
2022-10-06T06:12:00.486Z,3.90
2022-10-06T06:14:47.499Z,3.90
2022-10-06T06:17:16.049Z,4.00
2022-10-06T06:19:44.601Z,3.80
2022-10-06T06:22:12.916Z,3.50
2022-10-06T06:24:41.499Z,3.60
2022-10-06T06:27:09.940Z,3.50
2022-10-06T06:29:40.574Z,3.70
2022-10-06T06:32:10.135Z,3.60
2022-10-06T06:34:38.606Z,3.80
2022-10-06T06:37:11.603Z,4.00
2022-10-06T06:39:42.871Z,3.90
2022-10-06T06:42:11.669Z,3.20
2022-10-06T06:44:41.545Z,3.60
2022-10-06T06:47:10.153Z,3.90
2022-10-06T06:49:39.163Z,3.50
2022-10-06T06:52:08.630Z,3.90
2022-10-06T06:54:37.189Z,4.20
2022-10-06T06:57:05.842Z,3.40
2022-10-06T06:59:34.688Z,3.80
2022-10-06T07:02:03.663Z,4.60
2022-10-06T07:04:33.416Z,3.90
2022-10-06T07:07:01.827Z,3.40
2022-10-06T07:09:30.682Z,3.70
2022-10-06T07:11:59.209Z,3.90
2022-10-06T07:14:27.841Z,4.20
2022-10-06T07:17:14.858Z,3.60
2022-10-06T07:19:52.081Z,4.00
2022-10-06T07:22:43.965Z,3.50
2022-10-06T07:25:28.148Z,3.50
2022-10-06T07:27:57.112Z,3.30
2022-10-06T07:30:29.778Z,3.90
2022-10-06T07:32:58.377Z,3.20
2022-10-06T07:35:27.116Z,3.90
2022-10-06T07:37:55.370Z,3.90
2022-10-06T07:40:24.085Z,3.60
2022-10-06T07:42:52.557Z,3.60
2022-10-06T07:45:39.673Z,4.00
2022-10-06T07:48:23.945Z,3.80
2022-10-06T07:50:53.902Z,3.80
2022-10-06T07:53:22.534Z,3.80
2022-10-06T07:55:50.973Z,3.50
2022-10-06T07:58:40.565Z,3.60
2022-10-06T08:01:13.281Z,3.70
2022-10-06T08:03:45.964Z,3.30
2022-10-06T08:06:16.330Z,3.80
2022-10-06T08:08:50.347Z,3.70
2022-10-06T08:11:23.257Z,3.80
2022-10-06T08:13:52.545Z,3.70
2022-10-06T08:16:33.522Z,3.70
2022-10-06T08:19:02.193Z,3.70
2022-10-06T08:21:36.531Z,3.40
2022-10-06T08:24:05.869Z,3.60
2022-10-06T08:26:34.837Z,3.40
2022-10-06T08:29:03.780Z,3.90
2022-10-06T08:31:33.531Z,3.60
2022-10-06T08:34:03.237Z,3.80
2022-10-06T08:36:32.747Z,3.40
2022-10-06T08:39:03.170Z,3.70
2022-10-06T08:41:46.563Z,3.50
2022-10-06T08:44:19.014Z,3.70
2022-10-06T08:47:03.327Z,4.20
2022-10-06T08:49:50.912Z,3.70
2022-10-06T08:53:06.258Z,4.10
2022-10-06T08:55:48.910Z,3.60
2022-10-06T08:58:50.818Z,4.40
2022-10-06T09:01:33.653Z,4.10
2022-10-06T09:04:07.639Z,4.00
2022-10-06T09:07:00.570Z,3.80
2022-10-06T09:10:16.873Z,3.60
2022-10-06T09:12:56.670Z,3.70
2022-10-06T09:15:41.652Z,3.80
2022-10-06T09:19:03.399Z,3.70
2022-10-06T09:21:46.919Z,4.20
2022-10-06T09:24:37.998Z,4.00
2022-10-06T09:27:24.749Z,4.00
2022-10-06T09:29:53.638Z,4.30
2022-10-06T09:32:24.977Z,4.40
2022-10-06T09:35:05.368Z,4.50
2022-10-06T09:38:08.688Z,3.50
2022-10-06T09:40:42.374Z,4.00
2022-10-06T09:43:37.149Z,3.60
2022-10-06T09:46:36.049Z,3.70
2022-10-06T09:49:18.040Z,4.40
2022-10-06T09:52:19.221Z,3.80
2022-10-06T09:55:07.438Z,4.40
2022-10-06T09:57:37.652Z,4.40
2022-10-06T10:00:38.908Z,4.80
2022-10-06T10:03:14.180Z,4.70
2022-10-06T10:05:52.021Z,4.40
2022-10-06T10:08:32.921Z,4.20
2022-10-06T10:11:29.071Z,4.50
2022-10-06T10:14:01.297Z,4.30
2022-10-06T10:16:38.684Z,4.10
2022-10-06T10:19:19.801Z,3.80
2022-10-06T10:21:48.238Z,4.20
2022-10-06T10:24:41.112Z,4.90
2022-10-06T10:27:28.635Z,5.10
2022-10-06T10:30:10.515Z,4.30
2022-10-06T10:33:09.893Z,4.70
2022-10-06T10:35:48.788Z,3.40
2022-10-06T10:38:23.320Z,4.00
2022-10-06T10:41:14.511Z,4.50
2022-10-06T10:44:10.594Z,3.70
2022-10-06T10:46:51.980Z,4.60
2022-10-06T10:49:30.655Z,3.80
2022-10-06T10:52:26.269Z,3.60
2022-10-06T10:55:41.712Z,4.10
2022-10-06T10:58:21.238Z,3.80
2022-10-06T11:00:58.358Z,3.80
2022-10-06T11:03:27.099Z,4.00
2022-10-06T11:06:14.268Z,4.40
2022-10-06T11:09:16.658Z,3.80
2022-10-06T11:12:52.579Z,4.40
2022-10-06T11:16:01.800Z,4.10
2022-10-06T11:18:51.609Z,4.20
2022-10-06T11:21:36.524Z,3.90
2022-10-06T11:24:57.930Z,4.20
2022-10-06T11:27:45.010Z,4.00
2022-10-06T11:30:15.681Z,4.20
2022-10-06T11:33:20.314Z,4.30
2022-10-06T11:35:50.171Z,3.50
2022-10-06T11:39:01.366Z,4.40
2022-10-06T11:41:49.854Z,3.90
2022-10-06T11:44:46.126Z,4.00
2022-10-06T11:47:36.320Z,4.50
2022-10-06T11:50:41.778Z,3.90
2022-10-06T11:53:42.173Z,4.50
2022-10-06T11:56:37.153Z,4.30
2022-10-06T11:59:26.836Z,5.10
2022-10-06T12:01:59.998Z,5.30
2022-10-06T12:04:29.167Z,5.20
2022-10-06T12:07:00.408Z,4.80
2022-10-06T12:09:36.453Z,5.10
2022-10-06T12:12:27.650Z,4.80
2022-10-06T12:18:31.475Z,4.20
2022-10-06T12:21:36.599Z,4.80
2022-10-06T12:24:41.559Z,4.30
2022-10-06T12:27:27.748Z,4.20
2022-10-06T12:30:22.974Z,4.00
2022-10-06T12:33:06.135Z,4.00
2022-10-06T12:35:40.888Z,3.70
2022-10-06T12:38:43.481Z,5.00
2022-10-06T12:41:15.027Z,5.60
2022-10-06T12:43:57.653Z,4.60
2022-10-06T12:46:43.929Z,4.40
2022-10-06T12:49:54.093Z,4.30
2022-10-06T12:52:51.414Z,4.80
2022-10-06T12:55:42.456Z,4.30
2022-10-06T12:58:31.852Z,4.30
2022-10-06T13:01:12.513Z,5.00
2022-10-06T13:03:41.667Z,4.70
2022-10-06T13:06:11.491Z,4.90
2022-10-06T13:08:42.107Z,4.50
2022-10-06T13:11:29.052Z,4.50
2022-10-06T13:14:08.836Z,5.10
2022-10-06T13:16:42.323Z,6.80
2022-10-06T13:19:44.617Z,6.10
2022-10-06T13:22:15.033Z,5.10
2022-10-06T13:24:43.862Z,4.40
2022-10-06T13:27:18.921Z,4.30
2022-10-06T13:29:47.567Z,5.60
2022-10-06T13:32:19.769Z,4.30
2022-10-06T13:34:48.356Z,4.50
2022-10-06T13:37:17.527Z,5.00
2022-10-06T13:39:46.658Z,5.80
2022-10-06T13:42:23.893Z,4.70
2022-10-06T13:45:01.307Z,4.60
2022-10-06T13:47:31.204Z,4.80
2022-10-06T13:50:10.451Z,4.10
2022-10-06T13:52:49.011Z,5.30
2022-10-06T13:55:29.116Z,7.30
2022-10-06T13:58:03.625Z,6.70
2022-10-06T14:00:56.448Z,6.10
2022-10-06T14:03:37.328Z,5.50
2022-10-06T14:06:28.430Z,5.40
2022-10-06T14:10:32.059Z,6.00
2022-10-06T14:13:03.384Z,5.20
2022-10-06T14:15:49.128Z,5.90
2022-10-06T14:18:38.370Z,5.40
2022-10-06T14:21:37.470Z,5.50
2022-10-06T14:24:24.347Z,5.60
2022-10-06T14:26:55.902Z,6.50
2022-10-06T14:29:26.215Z,6.10
2022-10-06T14:31:55.482Z,5.90
2022-10-06T14:34:24.692Z,5.70
2022-10-06T14:36:54.797Z,5.50
2022-10-06T14:39:24.299Z,6.10
2022-10-06T14:41:53.301Z,5.60
2022-10-06T14:44:22.727Z,5.50
2022-10-06T14:46:52.009Z,5.40
2022-10-06T14:49:21.515Z,6.10
2022-10-06T14:51:50.700Z,5.90
2022-10-06T14:54:20.318Z,6.00
2022-10-06T14:56:54.253Z,5.70
2022-10-06T14:59:24.014Z,6.00
2022-10-06T15:01:54.511Z,5.80
2022-10-06T15:04:29.042Z,5.30
2022-10-06T15:07:16.882Z,6.00
2022-10-06T15:09:45.943Z,5.70
2022-10-06T15:12:15.541Z,5.90
2022-10-06T15:14:44.916Z,6.10
2022-10-06T15:17:14.253Z,5.40
2022-10-06T15:19:43.559Z,5.60
2022-10-06T15:22:12.639Z,6.20
2022-10-06T15:24:41.794Z,6.70
2022-10-06T15:27:30.210Z,6.50
2022-10-06T15:29:59.539Z,6.90
2022-10-06T15:32:28.762Z,6.20
2022-10-06T15:34:58.335Z,6.80
2022-10-06T15:37:27.889Z,6.50
2022-10-06T15:39:56.939Z,6.80
2022-10-06T15:42:26.340Z,6.60
2022-10-06T15:44:55.298Z,6.10
2022-10-06T15:47:24.961Z,6.20
2022-10-06T15:49:54.149Z,6.40
2022-10-06T15:52:23.914Z,6.40
2022-10-06T15:54:53.151Z,6.10
2022-10-06T15:57:23.138Z,7.00
2022-10-06T15:59:52.641Z,7.10
2022-10-06T16:02:22.243Z,7.10
2022-10-06T16:05:17.872Z,6.40
2022-10-06T16:07:47.130Z,6.80
2022-10-06T16:10:16.660Z,6.10
2022-10-06T16:12:46.197Z,6.30
2022-10-06T16:15:15.294Z,6.30
2022-10-06T16:17:44.571Z,6.20
2022-10-06T16:20:13.766Z,6.00
2022-10-06T16:22:42.859Z,6.60
2022-10-06T16:25:11.964Z,6.80
2022-10-06T16:27:41.253Z,6.10
2022-10-06T16:30:11.251Z,7.00
2022-10-06T16:32:41.792Z,8.40
2022-10-06T16:35:18.181Z,6.70
2022-10-06T16:37:50.871Z,6.80
2022-10-06T16:40:20.041Z,6.60
2022-10-06T16:42:49.429Z,7.00
2022-10-06T16:45:19.145Z,7.00
2022-10-06T16:47:48.428Z,6.40
2022-10-06T16:50:17.840Z,6.60
2022-10-06T16:52:47.086Z,6.10
2022-10-06T16:55:16.337Z,6.60
2022-10-06T16:57:46.055Z,6.60
2022-10-06T17:00:15.646Z,6.20
2022-10-06T17:02:44.688Z,6.70
2022-10-06T17:05:13.796Z,6.70
2022-10-06T17:07:43.125Z,6.90
2022-10-06T17:10:20.909Z,6.60
2022-10-06T17:12:50.633Z,7.10
2022-10-06T17:15:19.990Z,6.70
2022-10-06T17:17:49.344Z,7.10
2022-10-06T17:20:18.543Z,7.10
2022-10-06T17:22:47.838Z,6.80
2022-10-06T17:25:17.558Z,6.60
2022-10-06T17:27:47.063Z,8.20
2022-10-06T17:30:17.816Z,6.90
2022-10-06T17:32:48.624Z,6.90
2022-10-06T17:35:19.644Z,6.90
2022-10-06T17:37:48.930Z,6.50
2022-10-06T17:40:18.146Z,8.30
2022-10-06T17:42:47.525Z,7.00
2022-10-06T17:45:21.224Z,6.90
2022-10-06T17:47:50.745Z,7.70
2022-10-06T17:50:19.954Z,7.10
2022-10-06T17:52:49.434Z,6.00
2022-10-06T17:55:18.825Z,6.50
2022-10-06T17:57:48.015Z,6.50
2022-10-06T18:00:18.828Z,7.50
2022-10-06T18:02:48.094Z,7.00
2022-10-06T18:05:19.011Z,6.80
2022-10-06T18:07:48.666Z,6.50
2022-10-06T18:10:36.769Z,6.90
2022-10-06T18:13:06.755Z,7.30
2022-10-06T18:15:39.199Z,6.60
2022-10-06T18:18:08.380Z,6.10
2022-10-06T18:20:42.131Z,6.20
2022-10-06T18:23:11.291Z,7.40
2022-10-06T18:25:41.178Z,6.40
2022-10-06T18:28:11.479Z,6.60
2022-10-06T18:30:40.668Z,6.30
2022-10-06T18:36:12.058Z,6.80
2022-10-06T18:38:46.765Z,6.30
2022-10-06T18:41:19.447Z,6.30
2022-10-06T18:43:48.649Z,7.30
2022-10-06T18:46:37.883Z,7.30
2022-10-06T18:49:16.896Z,6.70
2022-10-06T18:51:52.633Z,6.80
2022-10-06T18:54:28.762Z,7.40
2022-10-06T18:56:59.241Z,7.20
2022-10-06T18:59:33.437Z,6.90
2022-10-06T19:02:03.874Z,7.30
2022-10-06T19:04:36.889Z,7.30
2022-10-06T19:07:06.725Z,7.40
2022-10-06T19:09:36.225Z,6.60
2022-10-06T19:12:05.622Z,7.00
2022-10-06T19:14:38.974Z,7.00
2022-10-06T19:17:16.038Z,7.20
2022-10-06T19:19:52.011Z,6.80
2022-10-06T19:22:25.547Z,6.60
2022-10-06T19:24:54.733Z,7.40
2022-10-06T19:27:26.488Z,6.70
2022-10-06T19:29:57.916Z,7.30
2022-10-06T19:32:34.326Z,6.40
2022-10-06T19:35:09.275Z,6.90
2022-10-06T19:37:40.348Z,6.80
2022-10-06T19:40:12.191Z,7.30
2022-10-06T19:42:50.591Z,7.70
2022-10-06T19:45:21.981Z,8.00
2022-10-06T19:47:52.501Z,7.80
2022-10-06T19:50:22.480Z,7.10
2022-10-06T19:52:52.629Z,7.60
2022-10-06T19:55:23.897Z,7.60
2022-10-06T19:57:53.359Z,7.50
2022-10-06T20:00:22.553Z,7.20
2022-10-06T20:02:52.096Z,7.50
2022-10-06T20:05:21.748Z,7.40
2022-10-06T20:07:50.867Z,7.30
2022-10-06T20:10:20.323Z,6.80
2022-10-06T20:12:49.679Z,6.60
2022-10-06T20:15:19.025Z,6.20
2022-10-06T20:17:48.863Z,6.80
2022-10-06T20:20:18.540Z,6.70
2022-10-06T20:22:48.528Z,6.70
2022-10-06T20:25:18.066Z,7.20
2022-10-06T20:27:47.353Z,6.70
2022-10-06T20:30:16.716Z,6.70
2022-10-06T20:32:46.016Z,6.80
2022-10-06T20:35:15.985Z,7.70
2022-10-06T20:37:45.564Z,7.60
2022-10-06T20:40:33.355Z,7.80
2022-10-06T20:43:02.785Z,6.80
2022-10-06T20:45:32.242Z,7.80
2022-10-06T20:48:03.159Z,8.00
2022-10-06T20:50:32.687Z,7.20
2022-10-06T20:53:01.950Z,7.80
2022-10-06T20:55:31.215Z,8.00
2022-10-06T20:58:00.296Z,8.00
2022-10-06T21:00:29.670Z,8.30
2022-10-06T21:02:58.699Z,8.40
2022-10-06T21:05:32.779Z,8.60
2022-10-06T21:08:02.902Z,7.90
2022-10-06T21:10:32.424Z,7.60
2022-10-06T21:13:02.302Z,8.00
2022-10-06T21:15:31.780Z,8.00
2022-10-06T21:18:01.682Z,8.40
2022-10-06T21:20:30.842Z,8.70
2022-10-06T21:23:00.133Z,8.90
2022-10-06T21:25:29.272Z,8.70
2022-10-06T21:27:58.402Z,8.40
2022-10-06T21:30:27.724Z,8.80
2022-10-06T21:32:56.792Z,8.90
2022-10-06T21:35:26.606Z,9.30
2022-10-06T21:37:58.656Z,8.60
2022-10-06T21:40:27.947Z,8.80
2022-10-06T21:42:57.064Z,8.40
2022-10-06T21:45:30.843Z,8.00
2022-10-06T21:48:02.213Z,9.10
2022-10-06T21:50:31.400Z,8.60
2022-10-06T21:53:00.543Z,8.80
2022-10-06T21:55:29.694Z,9.20
2022-10-06T21:57:58.970Z,8.50
2022-10-06T22:00:28.225Z,8.80
2022-10-06T22:02:57.418Z,8.70
2022-10-06T22:05:26.718Z,8.90
2022-10-06T22:07:55.964Z,9.30
2022-10-06T22:10:25.285Z,9.10
2022-10-06T22:12:55.264Z,9.30
2022-10-06T22:15:24.561Z,9.70
2022-10-06T22:17:54.313Z,9.40
2022-10-06T22:20:24.681Z,8.90
2022-10-06T22:22:54.330Z,9.40
2022-10-06T22:25:23.424Z,8.80
2022-10-06T22:27:52.813Z,8.40
2022-10-06T22:30:23.079Z,8.60
2022-10-06T22:32:52.059Z,8.70
2022-10-06T22:35:21.051Z,9.10
2022-10-06T22:37:51.345Z,9.10
2022-10-06T22:40:20.579Z,8.80
2022-10-06T22:42:49.560Z,10.00
2022-10-06T22:45:18.930Z,9.60
2022-10-06T22:47:48.110Z,9.20
2022-10-06T22:50:17.282Z,9.00
2022-10-06T22:52:46.663Z,9.90
2022-10-06T22:55:15.823Z,10.10
2022-10-06T22:57:45.232Z,10.10
2022-10-06T23:00:15.509Z,8.20
2022-10-06T23:02:44.669Z,8.10
2022-10-06T23:05:13.939Z,9.00
2022-10-06T23:07:43.534Z,12.90
2022-10-06T23:10:13.283Z,8.40
2022-10-06T23:12:42.454Z,8.40
2022-10-06T23:15:15.038Z,8.30
2022-10-06T23:17:45.065Z,7.70
2022-10-06T23:20:14.550Z,8.60
2022-10-06T23:22:43.876Z,8.40
2022-10-06T23:25:13.232Z,9.10
2022-10-06T23:27:42.751Z,8.60
2022-10-06T23:30:13.049Z,9.20
2022-10-06T23:32:42.590Z,9.60
2022-10-06T23:35:13.044Z,8.60
2022-10-06T23:37:42.682Z,8.30
2022-10-06T23:40:12.908Z,9.00
2022-10-06T23:42:42.207Z,9.60
2022-10-06T23:45:11.968Z,8.70
2022-10-06T23:47:41.406Z,7.90
2022-10-06T23:50:10.927Z,9.90
2022-10-06T23:52:40.119Z,9.30
2022-10-06T23:55:09.921Z,9.00
2022-10-06T23:57:39.536Z,9.90
